createdAt,value
2022-08-17T00:00:42.715Z,21.60
2022-08-17T00:03:17.196Z,21.60
2022-08-17T00:05:48.787Z,21.60
2022-08-17T00:08:20.349Z,21.60
2022-08-17T00:10:49.900Z,21.60
2022-08-17T00:13:21.557Z,21.60
2022-08-17T00:15:51.797Z,21.50
2022-08-17T00:19:02.014Z,21.50
2022-08-17T00:21:11.335Z,21.40
2022-08-17T00:23:47.752Z,21.40
2022-08-17T00:26:43.442Z,21.30
2022-08-17T00:29:09.113Z,21.20
2022-08-17T00:31:39.359Z,21.10
2022-08-17T00:34:10.304Z,21.10
2022-08-17T00:36:39.361Z,21.10
2022-08-17T00:39:08.179Z,21.00
2022-08-17T00:41:42.094Z,21.00
2022-08-17T00:44:12.469Z,20.90
2022-08-17T00:46:44.407Z,20.90
2022-08-17T00:49:15.408Z,20.90
2022-08-17T00:51:47.542Z,20.90
2022-08-17T00:54:19.988Z,20.80
2022-08-17T00:56:53.760Z,20.80
2022-08-17T00:59:25.187Z,20.80
2022-08-17T01:01:55.460Z,20.80
2022-08-17T01:04:25.286Z,20.70
2022-08-17T01:06:54.858Z,20.70
2022-08-17T01:09:24.151Z,20.60
2022-08-17T01:11:53.165Z,20.60
2022-08-17T01:14:23.016Z,20.50
2022-08-17T01:16:53.910Z,20.50
2022-08-17T01:19:26.667Z,20.40
2022-08-17T01:22:02.220Z,20.40
2022-08-17T01:24:33.681Z,20.30
2022-08-17T01:27:02.880Z,20.30
2022-08-17T01:29:42.298Z,20.20
2022-08-17T01:32:11.508Z,20.20
2022-08-17T01:34:42.954Z,20.20
2022-08-17T01:37:14.118Z,20.20
2022-08-17T01:39:46.898Z,20.20
2022-08-17T01:42:22.036Z,20.20
2022-08-17T01:44:54.520Z,20.10
2022-08-17T01:47:23.548Z,20.10
2022-08-17T01:49:52.918Z,20.10
2022-08-17T01:52:23.790Z,20.10
2022-08-17T01:54:54.516Z,20.10
2022-08-17T01:57:23.368Z,20.00
2022-08-17T01:59:52.300Z,20.00
2022-08-17T02:02:30.349Z,20.00
2022-08-17T02:05:00.151Z,20.00
2022-08-17T02:07:29.517Z,20.00
2022-08-17T02:09:59.641Z,20.00
2022-08-17T02:12:38.591Z,19.90
2022-08-17T02:15:12.465Z,19.90
2022-08-17T02:17:41.956Z,19.90
2022-08-17T02:20:12.067Z,19.90
2022-08-17T02:22:42.532Z,19.90
2022-08-17T02:25:16.351Z,19.90
2022-08-17T02:27:45.360Z,19.90
2022-08-17T02:30:59.028Z,19.90
2022-08-17T02:33:06.285Z,19.90
2022-08-17T02:35:38.201Z,19.90
2022-08-17T02:38:07.808Z,19.90
2022-08-17T02:40:40.666Z,19.80
2022-08-17T02:43:10.376Z,19.80
2022-08-17T02:45:39.237Z,19.70
2022-08-17T02:48:08.070Z,19.70
2022-08-17T02:50:37.168Z,19.60
2022-08-17T02:53:06.277Z,19.60
2022-08-17T02:55:38.950Z,19.60
2022-08-17T02:58:08.249Z,19.50
2022-08-17T03:00:41.227Z,19.60
2022-08-17T03:03:13.708Z,19.50
2022-08-17T03:05:43.226Z,19.60
2022-08-17T03:08:13.134Z,19.60
2022-08-17T03:10:44.256Z,19.50
2022-08-17T03:13:14.764Z,19.50
2022-08-17T03:15:46.118Z,19.50
2022-08-17T03:18:25.082Z,19.40
2022-08-17T03:20:57.758Z,19.40
2022-08-17T03:23:27.206Z,19.40
2022-08-17T03:25:58.241Z,19.40
2022-08-17T03:28:28.351Z,19.30
2022-08-17T03:30:57.326Z,19.20
2022-08-17T03:33:26.367Z,19.20
2022-08-17T03:35:55.229Z,19.20
2022-08-17T03:38:24.428Z,19.20
2022-08-17T03:40:58.057Z,19.10
2022-08-17T03:43:31.396Z,19.10
2022-08-17T03:46:33.829Z,19.20
2022-08-17T03:49:23.081Z,19.20
2022-08-17T03:52:09.486Z,19.20
2022-08-17T03:54:55.738Z,19.20
2022-08-17T03:57:26.086Z,19.20
2022-08-17T03:59:57.187Z,19.20
2022-08-17T04:02:30.026Z,19.20
2022-08-17T04:04:59.649Z,19.20
2022-08-17T04:07:31.657Z,19.30
2022-08-17T04:10:00.738Z,19.30
2022-08-17T04:12:31.508Z,19.40
2022-08-17T04:15:01.813Z,19.50
2022-08-17T04:17:31.260Z,19.50
2022-08-17T04:20:00.178Z,19.60
2022-08-17T04:22:31.229Z,19.70
2022-08-17T04:25:05.171Z,19.80
2022-08-17T04:27:34.077Z,19.80
2022-08-17T04:30:07.540Z,19.90
2022-08-17T04:33:09.882Z,19.90
2022-08-17T04:35:42.427Z,20.00
2022-08-17T04:38:13.340Z,20.00
2022-08-17T04:40:59.629Z,20.20
2022-08-17T04:43:30.176Z,20.60
2022-08-17T04:46:03.796Z,21.10
2022-08-17T04:48:37.021Z,21.60
2022-08-17T04:51:10.195Z,22.20
2022-08-17T04:53:40.568Z,22.60
2022-08-17T04:56:11.779Z,23.10
2022-08-17T04:58:46.579Z,23.60
2022-08-17T05:01:23.643Z,24.20
2022-08-17T05:03:53.377Z,24.70
2022-08-17T05:06:22.623Z,25.20
2022-08-17T05:08:51.462Z,25.70
2022-08-17T05:11:20.525Z,26.00
2022-08-17T05:13:50.494Z,26.40
2022-08-17T05:16:22.349Z,26.80
2022-08-17T05:18:51.858Z,27.30
2022-08-17T05:21:21.456Z,27.70
2022-08-17T05:23:54.737Z,28.20
2022-08-17T05:26:26.800Z,28.60
2022-08-17T05:28:59.592Z,28.90
2022-08-17T05:31:32.202Z,29.40
2022-08-17T05:34:01.257Z,29.80
2022-08-17T05:36:41.963Z,30.20
2022-08-17T05:39:15.881Z,30.50
2022-08-17T05:41:47.934Z,30.80
2022-08-17T05:44:17.263Z,31.10
2022-08-17T05:46:52.282Z,31.30
2022-08-17T05:49:28.469Z,31.60
2022-08-17T05:52:22.228Z,31.90
2022-08-17T05:55:04.738Z,32.40
2022-08-17T05:57:56.043Z,32.70
2022-08-17T06:00:30.854Z,33.10
2022-08-17T06:03:21.898Z,33.50
2022-08-17T06:06:04.542Z,33.90
2022-08-17T06:08:38.607Z,34.30
2022-08-17T06:11:19.848Z,34.70
2022-08-17T06:14:02.198Z,35.10
2022-08-17T06:16:36.831Z,35.50
2022-08-17T06:19:15.187Z,35.80
2022-08-17T06:21:47.586Z,36.30
2022-08-17T06:24:34.413Z,36.60
2022-08-17T06:27:09.708Z,37.00
2022-08-17T06:29:46.490Z,37.30
2022-08-17T06:32:18.030Z,37.50
2022-08-17T06:34:49.359Z,37.70
2022-08-17T06:37:33.225Z,38.10
2022-08-17T06:40:23.231Z,38.30
2022-08-17T06:43:06.545Z,38.50
2022-08-17T06:45:40.658Z,38.80
2022-08-17T06:48:14.311Z,38.90
2022-08-17T06:50:49.215Z,39.20
2022-08-17T06:53:25.167Z,39.50
2022-08-17T06:56:00.018Z,39.70
2022-08-17T06:58:33.555Z,39.80
2022-08-17T07:01:09.710Z,40.00
2022-08-17T07:03:54.715Z,40.20
2022-08-17T07:06:29.192Z,40.40
2022-08-17T07:09:05.500Z,40.70
2022-08-17T07:11:42.682Z,40.90
2022-08-17T07:14:36.697Z,41.20
2022-08-17T07:17:10.542Z,41.50
2022-08-17T07:19:45.604Z,41.60
2022-08-17T07:22:28.087Z,41.90
2022-08-17T07:24:59.837Z,42.20
2022-08-17T07:27:31.738Z,42.30
2022-08-17T07:30:09.547Z,42.50
2022-08-17T07:32:45.440Z,42.70
2022-08-17T07:35:17.891Z,42.90
2022-08-17T07:37:54.501Z,43.10
2022-08-17T07:40:28.368Z,43.30
2022-08-17T07:43:06.530Z,43.60
2022-08-17T07:45:54.457Z,43.90
2022-08-17T07:48:27.098Z,44.10
2022-08-17T07:50:56.048Z,44.20
2022-08-17T07:53:27.658Z,44.20
2022-08-17T07:55:56.510Z,44.20
2022-08-17T07:58:26.736Z,44.10
2022-08-17T08:01:08.078Z,44.10
2022-08-17T08:03:42.920Z,44.30
2022-08-17T08:06:22.768Z,44.40
2022-08-17T08:08:57.358Z,44.60
2022-08-17T08:11:42.454Z,44.70
2022-08-17T08:14:28.281Z,45.00
2022-08-17T08:17:00.505Z,45.30
2022-08-17T08:19:30.629Z,45.40
2022-08-17T08:22:06.297Z,45.40
2022-08-17T08:24:52.257Z,45.30
2022-08-17T08:27:31.410Z,45.40
2022-08-17T08:30:07.931Z,45.50
2022-08-17T08:32:50.295Z,45.70
2022-08-17T08:35:27.146Z,45.90
2022-08-17T08:38:07.746Z,46.10
2022-08-17T08:40:54.185Z,46.30
2022-08-17T08:43:30.557Z,46.40
2022-08-17T08:46:05.230Z,46.40
2022-08-17T08:49:06.548Z,46.60
2022-08-17T08:51:48.419Z,46.80
2022-08-17T08:54:34.609Z,46.80
2022-08-17T08:57:29.213Z,46.80
2022-08-17T09:00:14.627Z,47.00
2022-08-17T09:03:12.877Z,47.10
2022-08-17T09:06:06.968Z,47.20
2022-08-17T09:09:07.159Z,47.20
2022-08-17T09:12:01.973Z,47.00
2022-08-17T09:14:45.073Z,46.80
2022-08-17T09:17:21.577Z,46.90
2022-08-17T09:19:56.012Z,46.70
2022-08-17T09:22:33.772Z,46.60
2022-08-17T09:25:09.436Z,46.60
2022-08-17T09:27:49.778Z,46.60
2022-08-17T09:30:20.750Z,46.50
2022-08-17T09:32:57.617Z,46.50
2022-08-17T09:35:33.763Z,46.50
2022-08-17T09:38:18.821Z,46.50
2022-08-17T09:40:52.853Z,46.50
2022-08-17T09:43:31.701Z,46.50
2022-08-17T09:46:05.213Z,46.50
2022-08-17T09:48:40.181Z,46.50
2022-08-17T09:51:14.672Z,46.60
2022-08-17T09:53:44.808Z,46.70
2022-08-17T09:56:42.333Z,46.70
2022-08-17T09:59:34.190Z,46.90
2022-08-17T10:02:44.429Z,46.90
2022-08-17T10:05:19.034Z,47.00
2022-08-17T10:07:56.063Z,47.00
2022-08-17T10:10:30.502Z,47.10
2022-08-17T10:13:06.390Z,47.10
2022-08-17T10:15:48.301Z,47.10
2022-08-17T10:18:35.541Z,47.10
2022-08-17T10:21:25.830Z,47.20
2022-08-17T10:24:23.188Z,47.30
2022-08-17T10:26:56.551Z,47.20
2022-08-17T10:29:30.046Z,47.20
2022-08-17T10:32:27.018Z,47.10
2022-08-17T10:35:17.940Z,47.10
2022-08-17T10:38:15.431Z,47.10
2022-08-17T10:40:51.477Z,47.10
2022-08-17T10:43:34.998Z,47.10
2022-08-17T10:46:30.662Z,47.10
2022-08-17T10:49:25.771Z,47.00
2022-08-17T10:51:57.131Z,46.90
2022-08-17T10:54:47.411Z,46.70
2022-08-17T10:57:40.516Z,46.50
2022-08-17T11:00:14.826Z,46.30
2022-08-17T11:02:52.178Z,46.20
2022-08-17T11:05:45.108Z,46.10
2022-08-17T11:09:03.902Z,46.00
2022-08-17T11:11:47.562Z,45.90
2022-08-17T11:14:33.290Z,45.80
2022-08-17T11:17:20.331Z,45.70
2022-08-17T11:20:05.629Z,45.60
2022-08-17T11:23:10.182Z,45.40
2022-08-17T11:25:41.875Z,45.30
2022-08-17T11:28:19.577Z,45.30
2022-08-17T11:30:52.046Z,45.30
2022-08-17T11:33:57.516Z,45.30
2022-08-17T11:37:10.885Z,45.20
2022-08-17T11:40:09.113Z,45.20
2022-08-17T11:43:03.441Z,44.90
2022-08-17T11:46:11.800Z,44.90
2022-08-17T11:49:21.155Z,44.70
2022-08-17T11:52:10.209Z,44.60
2022-08-17T11:54:47.182Z,44.70
2022-08-17T11:57:55.763Z,44.90
2022-08-17T12:00:56.872Z,45.20
2022-08-17T12:03:58.141Z,45.50
2022-08-17T12:06:41.871Z,45.80
2022-08-17T12:09:18.090Z,46.10
2022-08-17T12:11:55.159Z,46.30
2022-08-17T12:15:08.885Z,46.60
2022-08-17T12:17:41.207Z,46.70
2022-08-17T12:20:16.271Z,46.80
2022-08-17T12:22:54.817Z,47.00
2022-08-17T12:25:33.142Z,47.30
2022-08-17T12:28:05.962Z,47.40
2022-08-17T12:30:37.882Z,47.50
2022-08-17T12:33:25.460Z,47.60
2022-08-17T12:36:04.226Z,47.70
2022-08-17T12:38:34.840Z,47.80
2022-08-17T12:41:26.441Z,47.80
2022-08-17T12:44:02.483Z,47.80
2022-08-17T12:46:35.850Z,47.80
2022-08-17T12:49:15.632Z,47.70
2022-08-17T12:51:47.989Z,47.80
2022-08-17T12:54:28.364Z,47.90
2022-08-17T12:56:57.453Z,47.90
2022-08-17T12:59:30.236Z,47.80
2022-08-17T13:02:00.261Z,47.90
2022-08-17T13:04:29.745Z,48.00
2022-08-17T13:07:00.126Z,48.00
2022-08-17T13:09:36.059Z,48.00
2022-08-17T13:12:10.964Z,47.80
2022-08-17T13:14:45.802Z,47.60
2022-08-17T13:17:15.120Z,47.30
2022-08-17T13:19:50.845Z,46.90
2022-08-17T13:22:24.700Z,46.50
2022-08-17T13:24:55.750Z,46.20
2022-08-17T13:27:26.922Z,46.10
2022-08-17T13:29:59.557Z,46.00
2022-08-17T13:32:37.897Z,46.00
2022-08-17T13:35:40.544Z,46.10
2022-08-17T13:38:15.217Z,46.30
2022-08-17T13:40:49.235Z,46.60
2022-08-17T13:43:40.845Z,46.80
2022-08-17T13:46:11.450Z,47.10
2022-08-17T13:48:40.183Z,47.20
2022-08-17T13:51:31.580Z,47.40
2022-08-17T13:54:09.944Z,47.60
2022-08-17T13:56:46.681Z,47.70
2022-08-17T13:59:53.255Z,47.80
2022-08-17T14:02:15.394Z,47.80
2022-08-17T14:04:46.191Z,47.80
2022-08-17T14:07:33.800Z,47.80
2022-08-17T14:10:08.419Z,47.80
2022-08-17T14:12:39.271Z,47.50
2022-08-17T14:15:09.261Z,46.90
2022-08-17T14:17:39.085Z,46.40
2022-08-17T14:20:11.842Z,45.80
2022-08-17T14:22:44.490Z,45.20
2022-08-17T14:25:16.743Z,44.50
2022-08-17T14:27:52.467Z,43.80
2022-08-17T14:30:25.165Z,43.30
2022-08-17T14:32:54.715Z,42.70
2022-08-17T14:35:24.435Z,42.30
2022-08-17T14:37:54.153Z,41.90
2022-08-17T14:40:25.550Z,41.40
2022-08-17T14:42:55.629Z,41.00
2022-08-17T14:45:30.186Z,40.60
2022-08-17T14:48:05.690Z,40.20
2022-08-17T14:50:35.685Z,39.90
2022-08-17T14:53:05.973Z,39.50
2022-08-17T14:55:39.910Z,39.20
2022-08-17T14:58:08.865Z,38.90
2022-08-17T15:00:37.547Z,38.60
2022-08-17T15:03:06.822Z,38.40
2022-08-17T15:05:37.622Z,38.10
2022-08-17T15:08:07.502Z,37.90
2022-08-17T15:10:39.081Z,37.70
2022-08-17T15:13:22.788Z,37.60
2022-08-17T15:15:51.751Z,37.40
2022-08-17T15:18:20.342Z,37.30
2022-08-17T15:20:50.710Z,37.10
2022-08-17T15:23:21.120Z,37.00
2022-08-17T15:25:52.721Z,36.90
2022-08-17T15:28:22.913Z,36.70
2022-08-17T15:30:52.616Z,36.60
2022-08-17T15:33:23.984Z,36.50
2022-08-17T15:35:54.189Z,36.40
2022-08-17T15:38:23.547Z,36.30
2022-08-17T15:40:54.353Z,36.30
2022-08-17T15:43:27.670Z,36.20
2022-08-17T15:46:01.267Z,36.10
2022-08-17T15:48:42.216Z,36.10
2022-08-17T15:51:13.675Z,36.00
2022-08-17T15:53:43.326Z,35.90
2022-08-17T15:56:15.049Z,35.80
2022-08-17T15:58:46.614Z,35.80
2022-08-17T16:01:31.337Z,35.70
2022-08-17T16:04:07.075Z,35.70
2022-08-17T16:06:37.813Z,35.60
2022-08-17T16:09:06.301Z,35.50
2022-08-17T16:11:36.591Z,35.50
2022-08-17T16:14:05.247Z,35.40
2022-08-17T16:16:34.428Z,35.30
2022-08-17T16:19:02.852Z,35.20
2022-08-17T16:21:42.761Z,35.10
2022-08-17T16:24:12.823Z,35.10
2022-08-17T16:26:43.681Z,35.00
2022-08-17T16:29:12.400Z,34.90
2022-08-17T16:31:41.879Z,34.80
2022-08-17T16:34:17.135Z,34.80
2022-08-17T16:36:54.658Z,34.70
2022-08-17T16:39:26.657Z,34.60
2022-08-17T16:41:56.763Z,34.50
2022-08-17T16:44:26.160Z,34.40
2022-08-17T16:46:54.740Z,34.40
2022-08-17T16:49:23.296Z,34.30
2022-08-17T16:52:06.199Z,34.20
2022-08-17T16:54:35.510Z,34.20
2022-08-17T16:57:06.014Z,34.10
2022-08-17T16:59:39.603Z,34.00
2022-08-17T17:02:14.908Z,33.90
2022-08-17T17:04:49.666Z,33.80
2022-08-17T17:07:37.326Z,33.70
2022-08-17T17:10:10.390Z,33.60
2022-08-17T17:13:01.933Z,33.50
2022-08-17T17:15:43.677Z,33.40
2022-08-17T17:18:14.753Z,33.30
2022-08-17T17:20:49.999Z,33.20
2022-08-17T17:23:34.953Z,33.10
2022-08-17T17:26:11.884Z,33.00
2022-08-17T17:29:00.835Z,32.90
2022-08-17T17:31:38.176Z,32.70
2022-08-17T17:34:11.400Z,32.60
2022-08-17T17:36:43.151Z,32.40
2022-08-17T17:39:16.561Z,32.30
2022-08-17T17:41:50.091Z,32.20
2022-08-17T17:44:25.453Z,32.00
2022-08-17T17:46:57.961Z,31.90
2022-08-17T17:49:29.772Z,31.70
2022-08-17T17:52:14.419Z,31.50
2022-08-17T17:55:04.380Z,31.40
2022-08-17T17:57:51.102Z,31.30
2022-08-17T18:00:25.058Z,31.10
2022-08-17T18:03:15.231Z,30.90
2022-08-17T18:05:58.173Z,30.80
2022-08-17T18:08:47.870Z,30.70
2022-08-17T18:11:35.252Z,30.50
2022-08-17T18:14:15.161Z,30.40
2022-08-17T18:16:48.102Z,30.30
2022-08-17T18:19:20.076Z,30.10
2022-08-17T18:21:53.893Z,30.00
2022-08-17T18:24:33.161Z,29.90
2022-08-17T18:27:03.040Z,29.80
2022-08-17T18:29:45.489Z,29.70
2022-08-17T18:32:23.510Z,29.60
2022-08-17T18:34:54.283Z,29.50
2022-08-17T18:37:40.857Z,29.40
2022-08-17T18:40:34.731Z,29.30
2022-08-17T18:43:22.710Z,29.30
2022-08-17T18:45:53.515Z,29.20
2022-08-17T18:48:33.341Z,29.10
2022-08-17T18:51:39.688Z,29.00
2022-08-17T18:54:17.351Z,29.00
2022-08-17T18:56:51.341Z,28.90
2022-08-17T18:59:28.916Z,28.90
2022-08-17T19:02:38.799Z,28.80
2022-08-17T19:05:14.425Z,28.70
2022-08-17T19:07:45.194Z,28.60
2022-08-17T19:10:22.385Z,28.60
2022-08-17T19:13:00.231Z,28.50
2022-08-17T19:15:35.759Z,28.50
2022-08-17T19:18:15.087Z,28.40
2022-08-17T19:20:51.080Z,28.40
2022-08-17T19:23:24.995Z,28.30
2022-08-17T19:25:58.365Z,28.20
2022-08-17T19:28:30.712Z,28.20
2022-08-17T19:31:04.065Z,28.10
2022-08-17T19:33:33.297Z,28.00
2022-08-17T19:36:08.486Z,27.90
2022-08-17T19:38:47.246Z,27.90
2022-08-17T19:41:23.236Z,27.80
2022-08-17T19:44:15.892Z,27.70
2022-08-17T19:46:56.043Z,27.70
2022-08-17T19:49:41.579Z,27.60
2022-08-17T19:52:24.156Z,27.60
2022-08-17T19:55:01.049Z,27.50
2022-08-17T19:57:49.968Z,27.50
2022-08-17T20:00:19.637Z,27.40
2022-08-17T20:03:07.991Z,27.40
2022-08-17T20:06:08.847Z,27.40
2022-08-17T20:08:34.425Z,27.30
2022-08-17T20:11:09.572Z,27.20
2022-08-17T20:13:43.368Z,27.20
2022-08-17T20:16:12.640Z,27.10
2022-08-17T20:18:50.904Z,27.10
2022-08-17T20:21:26.800Z,27.00
2022-08-17T20:24:05.759Z,26.90
2022-08-17T20:26:58.586Z,26.90
2022-08-17T20:29:39.726Z,26.80
2022-08-17T20:32:26.978Z,26.70
2022-08-17T20:35:21.039Z,26.70
2022-08-17T20:37:56.552Z,26.70
2022-08-17T20:40:33.070Z,26.60
2022-08-17T20:43:39.971Z,26.60
2022-08-17T20:46:18.961Z,26.50
2022-08-17T20:48:50.700Z,26.40
2022-08-17T20:51:27.193Z,26.40
2022-08-17T20:54:35.722Z,26.30
2022-08-17T20:57:06.098Z,26.20
2022-08-17T21:00:14.147Z,26.20
2022-08-17T21:02:44.822Z,26.20
2022-08-17T21:05:38.303Z,26.10
2022-08-17T21:08:15.999Z,26.10
2022-08-17T21:10:47.127Z,26.00
2022-08-17T21:13:39.005Z,26.00
2022-08-17T21:16:27.516Z,25.90
2022-08-17T21:19:19.260Z,25.80
2022-08-17T21:21:59.810Z,25.70
2022-08-17T21:24:41.631Z,25.60
2022-08-17T21:27:24.810Z,25.60
2022-08-17T21:30:17.121Z,25.60
2022-08-17T21:33:06.806Z,25.60
2022-08-17T21:35:49.054Z,25.60
2022-08-17T21:38:20.619Z,25.60
2022-08-17T21:40:51.983Z,25.60
2022-08-17T21:43:32.473Z,25.50
2022-08-17T21:46:08.990Z,25.60
2022-08-17T21:48:45.102Z,25.50
2022-08-17T21:51:21.344Z,25.60
2022-08-17T21:53:52.520Z,25.60
2022-08-17T21:56:26.951Z,25.60
2022-08-17T21:58:59.542Z,25.60
2022-08-17T22:01:31.836Z,25.60
2022-08-17T22:04:05.147Z,25.60
2022-08-17T22:06:38.211Z,25.60
2022-08-17T22:09:15.239Z,25.60
2022-08-17T22:12:10.171Z,25.60
2022-08-17T22:14:52.485Z,25.60
2022-08-17T22:17:25.272Z,25.60
2022-08-17T22:19:56.306Z,25.50
2022-08-17T22:22:33.084Z,25.50
2022-08-17T22:25:05.176Z,25.40
2022-08-17T22:27:52.566Z,25.30
2022-08-17T22:30:33.107Z,25.30
2022-08-17T22:33:29.602Z,25.20
2022-08-17T22:36:12.102Z,25.10
2022-08-17T22:38:41.631Z,25.00
2022-08-17T22:41:34.691Z,25.00
2022-08-17T22:44:17.250Z,24.90
2022-08-17T22:46:57.083Z,24.80
2022-08-17T22:49:30.841Z,24.70
2022-08-17T22:52:24.372Z,24.60
2022-08-17T22:55:35.423Z,24.50
2022-08-17T22:58:28.160Z,24.40
2022-08-17T23:00:56.955Z,24.40
2022-08-17T23:03:27.956Z,24.30
2022-08-17T23:06:08.227Z,24.20
2022-08-17T23:08:43.936Z,24.20
2022-08-17T23:11:15.069Z,24.10
2022-08-17T23:13:44.380Z,24.10
2022-08-17T23:16:14.938Z,24.00
2022-08-17T23:18:43.435Z,24.00
2022-08-17T23:21:13.525Z,24.00
2022-08-17T23:23:55.433Z,23.90
2022-08-17T23:26:24.015Z,23.90
2022-08-17T23:28:52.546Z,23.80
2022-08-17T23:31:25.760Z,23.80
2022-08-17T23:33:54.892Z,23.80
2022-08-17T23:36:28.500Z,23.80
2022-08-17T23:38:57.621Z,23.80
2022-08-17T23:41:29.804Z,23.70
2022-08-17T23:44:00.966Z,23.70
2022-08-17T23:46:29.463Z,23.70
2022-08-17T23:48:57.948Z,23.60
2022-08-17T23:51:30.184Z,23.60
2022-08-17T23:54:07.692Z,23.60
2022-08-17T23:56:41.937Z,23.60
2022-08-17T23:59:11.325Z,23.60
